Time;durP1;ratioP1;P1;durP2;ratioP2;P2;SDS_P1;SDS_P2;PMS_P1;PMS_P2;Temp;Humidity;BMP_temperature;BMP_pressure;BME280_temperature;BME280_humidity;BME280_pressure;Samples;Min_cycle;Max_cycle;Signal;HPM_P1;HPM_P2
2022/02/19 00:00:12;;;;;;;4.20;1.90;;;;;;;9.67;57.41;95090.83;107647;1270;105069;-83
2022/02/19 00:03:03;;;;;;;4.80;1.80;;;;;;;9.69;57.15;95084.83;107809;1267;115511;-82
2022/02/19 00:05:37;;;;;;;4.70;2.00;;;;;;;9.73;57.21;95096.89;107708;1267;137574;-84
2022/02/19 00:08:11;;;;;;;2.90;2.00;;;;;;;9.67;57.37;95087.97;107518;1270;147852;-83
2022/02/19 00:10:42;;;;;;;4.20;1.70;;;;;;;9.66;57.40;95086.19;107915;1268;116721;-84
2022/02/19 00:13:14;;;;;;;5.50;2.40;;;;;;;9.70;57.33;95093.48;107843;1268;134478;-82
2022/02/19 00:15:47;;;;;;;5.10;2.10;;;;;;;9.68;57.34;95101.10;107633;1268;194960;-82
2022/02/19 00:18:18;;;;;;;5.20;2.40;;;;;;;9.67;57.48;95094.04;107864;1268;149043;-83
2022/02/19 00:20:49;;;;;;;7.30;2.30;;;;;;;9.63;57.54;95094.98;107665;1267;183006;-83
2022/02/19 00:23:20;;;;;;;3.50;1.60;;;;;;;9.59;57.78;95085.69;107727;1267;149881;-84
2022/02/19 00:25:52;;;;;;;3.90;2.00;;;;;;;9.67;57.63;95082.30;105913;1268;2633424;-82
2022/02/19 00:28:23;;;;;;;4.30;2.10;;;;;;;9.67;57.69;95101.60;107849;1268;152053;-83
2022/02/19 00:30:54;;;;;;;5.30;1.60;;;;;;;9.65;57.78;95095.91;107700;1268;144620;-83
2022/02/19 00:33:26;;;;;;;3.80;2.10;;;;;;;9.65;57.83;95105.75;107853;1268;119337;-83
2022/02/19 00:35:57;;;;;;;4.50;2.00;;;;;;;9.78;57.70;95101.63;107911;1267;99416;-83
2022/02/19 00:38:28;;;;;;;1.90;1.30;;;;;;;9.80;57.72;95105.42;107564;1268;220254;-83
2022/02/19 00:41:01;;;;;;;2.40;1.60;;;;;;;9.90;57.59;95095.50;107581;1266;174119;-83
2022/02/19 00:43:32;;;;;;;3.80;1.80;;;;;;;9.96;57.65;95108.48;106935;1267;1238734;-84
2022/02/19 00:46:03;;;;;;;3.60;1.80;;;;;;;9.92;57.80;95118.42;107787;1268;140647;-83
2022/02/19 00:48:35;;;;;;;4.20;2.10;;;;;;;9.84;57.86;95129.72;107664;1268;138242;-83
2022/02/19 00:51:06;;;;;;;2.40;1.80;;;;;;;9.75;58.32;95138.23;107882;1266;131010;-82
2022/02/19 00:53:37;;;;;;;4.50;1.70;;;;;;;9.78;58.38;95128.24;107714;1268;168056;-82
2022/02/19 00:56:09;;;;;;;3.70;2.10;;;;;;;9.98;58.39;95152.19;107827;1268;166324;-82
2022/02/19 00:58:41;;;;;;;3.90;1.80;;;;;;;10.01;58.60;95156.10;107756;1267;137158;-82
2022/02/19 01:01:12;;;;;;;5.10;2.30;;;;;;;9.96;59.09;95147.95;107961;1267;138565;-82
2022/02/19 01:03:43;;;;;;;5.10;2.40;;;;;;;9.85;59.71;95159.11;107678;1267;154211;-82
2022/02/19 01:06:18;;;;;;;2.90;1.70;;;;;;;9.75;59.93;95165.77;107791;1268;120378;-82
2022/02/19 01:08:53;;;;;;;4.80;1.70;;;;;;;9.77;59.51;95160.98;107825;1268;93834;-83
2022/02/19 01:11:24;;;;;;;3.20;2.00;;;;;;;9.81;59.32;95166.20;107582;1267;152037;-83
2022/02/19 01:13:55;;;;;;;5.30;2.60;;;;;;;9.83;58.97;95163.34;106339;1267;2048627;-83
2022/02/19 01:16:26;;;;;;;5.20;2.00;;;;;;;9.79;59.24;95166.54;107593;1267;193019;-83
2022/02/19 01:19:00;;;;;;;3.90;1.80;;;;;;;9.75;59.33;95163.73;106568;1268;1799871;-85
2022/02/19 01:21:31;;;;;;;4.20;2.40;;;;;;;9.74;59.55;95164.45;107719;1268;165651;-83
2022/02/19 01:24:02;;;;;;;4.00;1.70;;;;;;;9.70;59.85;95159.70;106497;1268;1732714;-82
2022/02/19 01:26:33;;;;;;;3.50;1.90;;;;;;;9.63;60.41;95133.44;107642;1267;169193;-83
2022/02/19 01:29:05;;;;;;;3.70;2.00;;;;;;;9.58;60.82;95145.02;107713;1267;172182;-83
2022/02/19 01:31:36;;;;;;;3.00;1.80;;;;;;;9.57;61.13;95161.60;107776;1268;158339;-83
2022/02/19 01:34:07;;;;;;;2.20;1.20;;;;;;;9.59;61.04;95169.11;107614;1267;218655;-84
2022/02/19 01:36:39;;;;;;;6.40;2.40;;;;;;;9.63;61.03;95174.97;107769;1267;158261;-82
2022/02/19 01:39:10;;;;;;;3.50;1.80;;;;;;;9.62;61.41;95190.10;107893;1268;92263;-83
2022/02/19 01:41:41;;;;;;;3.50;2.00;;;;;;;9.57;61.63;95189.85;107977;1268;116216;-83
2022/02/19 01:44:16;;;;;;;5.60;2.40;;;;;;;9.56;61.84;95221.89;107967;1268;151905;-83
2022/02/19 01:46:47;;;;;;;3.00;1.70;;;;;;;9.51;62.50;95253.91;107841;1267;162049;-82
2022/02/19 01:49:18;;;;;;;3.30;1.60;;;;;;;9.39;63.66;95273.48;107885;1268;105380;-82
2022/02/19 01:51:50;;;;;;;4.00;2.20;;;;;;;9.21;64.80;95277.84;107817;1268;130038;-82
2022/02/19 01:54:21;;;;;;;4.20;1.60;;;;;;;9.04;66.05;95287.45;107869;1268;130881;-83
2022/02/19 01:56:53;;;;;;;4.40;1.20;;;;;;;8.92;66.52;95283.55;107699;1268;149921;-83
2022/02/19 01:59:25;;;;;;;3.90;1.80;;;;;;;8.82;66.64;95289.21;106429;1268;2079698;-83
2022/02/19 02:01:56;;;;;;;3.20;1.50;;;;;;;8.74;66.81;95251.19;107819;1267;108090;-82
2022/02/19 02:04:27;;;;;;;2.60;1.20;;;;;;;8.71;66.77;95215.60;107725;1268;194349;-83
2022/02/19 02:06:59;;;;;;;2.40;1.20;;;;;;;8.67;67.44;95249.82;107740;1267;118940;-82
2022/02/19 02:09:31;;;;;;;2.10;0.90;;;;;;;8.54;68.16;95266.80;107804;1267;84581;-83
2022/02/19 02:12:02;;;;;;;1.60;0.90;;;;;;;8.48;68.85;95292.83;107866;1268;103952;-83
2022/02/19 02:14:37;;;;;;;1.30;1.00;;;;;;;8.42;69.37;95287.51;106686;1268;1522948;-85
2022/02/19 02:17:09;;;;;;;1.30;0.90;;;;;;;8.39;69.62;95310.54;107848;1268;121251;-85
2022/02/19 02:19:41;;;;;;;1.90;1.00;;;;;;;8.37;69.83;95299.55;108124;1268;97911;-82
2022/02/19 02:22:15;;;;;;;2.90;1.40;;;;;;;8.33;70.53;95296.42;107884;1267;134905;-83
2022/02/19 02:24:47;;;;;;;3.00;1.20;;;;;;;8.29;70.65;95308.05;107892;1268;120611;-81
2022/02/19 02:27:18;;;;;;;1.60;0.70;;;;;;;8.27;70.57;95317.50;107951;1268;111749;-83
2022/02/19 02:29:51;;;;;;;1.60;0.90;;;;;;;8.26;70.79;95311.18;108260;1268;94673;-82
2022/02/19 02:32:22;;;;;;;2.60;1.30;;;;;;;8.24;71.15;95307.06;107290;1267;1350720;-82
2022/02/19 02:34:55;;;;;;;1.50;1.10;;;;;;;8.16;71.49;95312.60;108060;1267;125566;-82
2022/02/19 02:37:27;;;;;;;4.10;1.50;;;;;;;8.10;71.57;95312.14;108228;1265;102733;-82
2022/02/19 02:39:58;;;;;;;4.40;1.70;;;;;;;8.07;71.52;95311.89;107037;1268;1488985;-82
2022/02/19 02:42:32;;;;;;;4.30;1.40;;;;;;;8.02;71.54;95305.52;108161;1268;108325;-82
2022/02/19 02:45:03;;;;;;;4.50;1.90;;;;;;;8.00;71.50;95315.95;108267;1266;30704;-82
2022/02/19 02:47:36;;;;;;;2.80;1.70;;;;;;;8.00;71.30;95334.21;108130;1268;123092;-82
2022/02/19 02:50:08;;;;;;;2.50;1.60;;;;;;;8.03;71.54;95325.31;106868;1267;1979686;-81
2022/02/19 02:52:42;;;;;;;3.20;1.70;;;;;;;8.08;70.64;95323.69;108308;1268;33446;-83
2022/02/19 02:55:13;;;;;;;2.80;1.40;;;;;;;8.12;69.36;95320.34;108071;1268;215507;-82
2022/02/19 02:57:45;;;;;;;4.00;1.90;;;;;;;8.14;68.95;95318.60;108023;1268;201413;-81
2022/02/19 03:00:17;;;;;;;2.40;1.40;;;;;;;8.11;68.41;95323.31;107146;1268;1588726;-82
2022/02/19 03:02:48;;;;;;;1.90;1.30;;;;;;;8.06;67.51;95327.06;105910;1268;1753927;-82
2022/02/19 03:05:19;;;;;;;3.60;1.10;;;;;;;8.01;66.45;95330.10;107938;1268;214834;-81
2022/02/19 03:07:49;;;;;;;3.30;1.50;;;;;;;8.00;64.14;95319.77;106624;1268;2081374;-82
2022/02/19 03:10:22;;;;;;;2.40;1.00;;;;;;;7.98;63.72;95334.06;107112;1268;1330185;-82
2022/02/19 03:12:51;;;;;;;;;;;;;;;7.94;63.00;95319.73;106795;1268;2047709;-81
2022/02/19 03:15:22;;;;;;;2.30;1.00;;;;;;;7.95;61.97;95315.50;108257;1268;38481;-82
2022/02/19 03:17:53;;;;;;;0.90;0.80;;;;;;;7.93;61.35;95352.36;108237;1268;121320;-81
2022/02/19 03:20:26;;;;;;;3.50;1.00;;;;;;;7.88;61.31;95350.60;108312;1268;49521;-82
2022/02/19 03:22:57;;;;;;;2.70;0.70;;;;;;;7.85;60.14;95348.27;108194;1268;89720;-82
2022/02/19 03:25:29;;;;;;;2.60;1.00;;;;;;;7.89;58.24;95356.75;107935;1268;194875;-81
2022/02/19 03:28:00;;;;;;;1.10;0.80;;;;;;;7.91;58.35;95369.98;107993;1268;113276;-82
2022/02/19 03:30:31;;;;;;;1.50;0.80;;;;;;;7.89;58.03;95376.88;108056;1268;177562;-81
2022/02/19 03:33:02;;;;;;;1.60;0.90;;;;;;;7.88;58.15;95386.34;107951;1268;164186;-81
2022/02/19 03:35:33;;;;;;;2.40;0.80;;;;;;;7.83;58.38;95389.59;108098;1268;94193;-82
2022/02/19 03:38:06;;;;;;;1.20;0.80;;;;;;;7.82;57.39;95395.82;108195;1268;40530;-81
2022/02/19 03:40:37;;;;;;;2.10;0.80;;;;;;;7.84;57.12;95394.20;106924;1267;1744203;-82
2022/02/19 03:43:08;;;;;;;2.70;1.00;;;;;;;7.85;56.47;95401.32;107045;1268;1546079;-82
2022/02/19 03:45:43;;;;;;;1.40;0.60;;;;;;;7.81;56.52;95406.23;108258;1268;46004;-81
2022/02/19 03:48:15;;;;;;;2.20;1.00;;;;;;;7.77;56.75;95414.55;107851;1265;163287;-82
2022/02/19 03:50:46;;;;;;;2.60;1.30;;;;;;;7.72;57.52;95409.27;106559;1267;2220862;-82
2022/02/19 03:53:17;;;;;;;0.80;0.60;;;;;;;7.66;57.96;95423.05;108212;1268;35969;-81
2022/02/19 03:55:48;;;;;;;1.60;0.70;;;;;;;7.59;58.05;95398.85;106688;1268;2071581;-81
2022/02/19 03:58:19;;;;;;;1.00;0.40;;;;;;;7.61;57.62;95419.48;108027;1268;73326;-81
2022/02/19 04:00:50;;;;;;;1.30;0.80;;;;;;;7.60;57.48;95424.10;106901;1268;1749458;-81
2022/02/19 04:03:21;;;;;;;1.90;0.90;;;;;;;7.58;57.42;95430.02;108227;1268;77692;-81
2022/02/19 04:05:52;;;;;;;1.30;0.70;;;;;;;7.59;57.16;95442.08;108195;1268;36208;-81
2022/02/19 04:08:23;;;;;;;3.10;0.70;;;;;;;7.58;56.78;95442.67;108193;1268;52465;-81
2022/02/19 04:10:54;;;;;;;0.90;0.60;;;;;;;7.55;55.92;95450.17;108037;1268;131220;-81
2022/02/19 04:13:25;;;;;;;0.80;0.60;;;;;;;7.58;55.37;95444.74;107987;1268;166231;-81
2022/02/19 04:15:55;;;;;;;2.70;0.80;;;;;;;7.57;54.99;95450.56;107943;1268;130531;-81
2022/02/19 04:18:27;;;;;;;1.60;0.90;;;;;;;7.56;54.71;95448.52;108058;1268;37416;-81
2022/02/19 04:20:58;;;;;;;1.70;0.90;;;;;;;7.53;54.58;95452.57;108215;1268;34632;-81
2022/02/19 04:23:29;;;;;;;2.50;0.70;;;;;;;7.50;53.89;95454.73;106330;1268;2104472;-81
2022/02/19 04:26:00;;;;;;;2.50;0.60;;;;;;;7.52;52.99;95456.86;108110;1268;97931;-81
2022/02/19 04:28:31;;;;;;;1.10;0.50;;;;;;;7.52;52.41;95450.33;108052;1268;96788;-81
2022/02/19 04:31:02;;;;;;;1.10;0.60;;;;;;;7.49;51.35;95448.85;108000;1268;109282;-81
2022/02/19 04:33:33;;;;;;;2.00;0.50;;;;;;;7.49;49.89;95436.09;108043;1267;139281;-82
2022/02/19 04:36:05;;;;;;;1.30;0.40;;;;;;;7.51;48.62;95435.63;107967;1267;98525;-81
2022/02/19 04:38:36;;;;;;;0.30;0.30;;;;;;;7.54;47.04;95446.34;108118;1268;56106;-81
2022/02/19 04:41:07;;;;;;;0.40;0.40;;;;;;;7.58;46.14;95452.39;108181;1267;33655;-82
2022/02/19 04:43:38;;;;;;;1.20;0.40;;;;;;;7.60;45.38;95461.39;107991;1268;158121;-82
2022/02/19 04:46:09;;;;;;;0.20;0.20;;;;;;;7.61;44.45;95447.77;108186;1268;109521;-81
2022/02/19 04:48:40;;;;;;;0.20;0.20;;;;;;;7.62;43.68;95449.44;108087;1267;68520;-81
2022/02/19 04:51:11;;;;;;;0.70;0.30;;;;;;;7.64;42.81;95451.73;108087;1268;74278;-81
2022/02/19 04:53:42;;;;;;;0.70;0.30;;;;;;;7.66;42.29;95462.92;107945;1267;127926;-81
2022/02/19 04:56:13;;;;;;;0.60;0.30;;;;;;;7.67;42.58;95479.95;108250;1268;34892;-81
2022/02/19 04:58:45;;;;;;;0.80;0.60;;;;;;;7.61;41.70;95483.06;106633;1268;2043165;-82
2022/02/19 05:01:16;;;;;;;2.10;0.40;;;;;;;7.64;41.25;95487.70;108079;1267;81531;-83
2022/02/19 05:03:47;;;;;;;0.50;0.40;;;;;;;7.66;40.72;95495.10;108069;1268;35709;-81
2022/02/19 05:06:18;;;;;;;4.90;0.80;;;;;;;7.64;41.22;95485.48;107798;1268;190009;-82
2022/02/19 05:08:50;;;;;;;1.60;0.50;;;;;;;7.65;40.43;95483.94;107065;1268;1538904;-81
2022/02/19 05:11:21;;;;;;;0.80;0.20;;;;;;;7.64;40.53;95492.65;107852;1268;184091;-81
2022/02/19 05:13:52;;;;;;;0.40;0.20;;;;;;;7.61;40.04;95473.89;108203;1268;31628;-82
2022/02/19 05:16:23;;;;;;;0.60;0.20;;;;;;;7.60;39.37;95479.59;108173;1267;33309;-82
2022/02/19 05:18:54;;;;;;;0.90;0.20;;;;;;;7.60;39.27;95478.36;108037;1268;168393;-82
2022/02/19 05:21:26;;;;;;;0.80;0.40;;;;;;;7.55;39.33;95476.08;106539;1268;2022622;-82
2022/02/19 05:23:57;;;;;;;1.60;0.50;;;;;;;7.52;39.45;95480.72;107867;1268;117237;-82
2022/02/19 05:26:28;;;;;;;0.50;0.30;;;;;;;7.46;39.04;95481.59;108115;1268;112549;-81
2022/02/19 05:28:59;;;;;;;1.40;0.20;;;;;;;7.45;39.01;95461.92;107965;1268;148645;-82
2022/02/19 05:31:32;;;;;;;0.80;0.20;;;;;;;7.41;38.60;95484.33;107974;1268;102754;-82
2022/02/19 05:34:04;;;;;;;0.20;0.20;;;;;;;7.40;38.34;95480.23;107977;1268;142716;-83
2022/02/19 05:36:38;;;;;;;1.30;0.30;;;;;;;7.39;38.17;95489.38;108072;1268;112268;-81
2022/02/19 05:39:09;;;;;;;0.80;0.30;;;;;;;7.35;38.62;95486.69;108089;1268;72506;-82
2022/02/19 05:41:40;;;;;;;1.40;0.50;;;;;;;7.28;38.67;95491.94;107863;1268;198542;-82
2022/02/19 05:44:11;;;;;;;0.10;0.10;;;;;;;7.27;38.01;95484.42;106993;1268;1562081;-81
2022/02/19 05:46:43;;;;;;;0.30;0.20;;;;;;;7.21;38.46;95505.44;108102;1268;120964;-81
2022/02/19 05:49:14;;;;;;;1.60;0.30;;;;;;;7.17;38.40;95504.11;108196;1268;59030;-81
2022/02/19 05:51:44;;;;;;;1.60;0.30;;;;;;;7.18;38.14;95503.79;106920;1268;1757672;-81
2022/02/19 05:54:15;;;;;;;1.30;0.50;;;;;;;7.18;38.44;95492.61;107901;1268;173490;-82
2022/02/19 05:56:46;;;;;;;0.40;0.20;;;;;;;7.19;38.15;95501.99;106587;1268;2106632;-81
2022/02/19 05:59:18;;;;;;;1.50;0.40;;;;;;;7.20;38.18;95519.05;108193;1268;32974;-82
2022/02/19 06:01:48;;;;;;;0.50;0.30;;;;;;;7.19;38.19;95523.39;108220;1268;44426;-81
2022/02/19 06:04:19;;;;;;;0.50;0.30;;;;;;;7.21;38.38;95513.14;108082;1268;145196;-82
2022/02/19 06:06:50;;;;;;;0.40;0.20;;;;;;;7.22;38.37;95514.45;108157;1268;87905;-82
2022/02/19 06:09:25;;;;;;;3.10;0.40;;;;;;;7.20;38.57;95526.70;108192;1268;32087;-83
2022/02/19 06:11:59;;;;;;;2.30;0.40;;;;;;;7.18;38.47;95517.86;107890;1267;193504;-82
2022/02/19 06:14:31;;;;;;;0.20;0.20;;;;;;;7.15;38.82;95521.58;106713;1267;2074180;-82
2022/02/19 06:17:02;;;;;;;1.20;0.70;;;;;;;7.15;38.63;95529.59;107956;1268;148747;-83
2022/02/19 06:19:33;;;;;;;0.60;0.30;;;;;;;7.20;38.32;95533.66;108238;1268;114501;-82
2022/02/19 06:22:05;;;;;;;2.30;0.80;;;;;;;7.26;38.21;95536.27;108275;1268;53640;-80
2022/02/19 06:24:38;;;;;;;1.70;0.60;;;;;;;7.27;38.60;95526.23;108133;1268;43028;-82
2022/02/19 06:27:09;;;;;;;1.30;0.60;;;;;;;7.27;38.35;95542.48;108130;1268;78379;-81
2022/02/19 06:29:40;;;;;;;0.40;0.10;;;;;;;7.28;38.64;95556.80;107274;1268;1298869;-83
2022/02/19 06:32:12;;;;;;;0.50;0.50;;;;;;;7.29;38.57;95553.61;107875;1269;165882;-82
2022/02/19 06:34:43;;;;;;;0.70;0.20;;;;;;;7.50;38.42;95540.60;108026;1268;173045;-82
2022/02/19 06:37:18;;;;;;;3.50;0.60;;;;;;;7.92;38.16;95548.02;108176;1268;83076;-82
2022/02/19 06:39:49;;;;;;;1.30;0.70;;;;;;;8.13;37.49;95558.05;108230;1268;53345;-83
2022/02/19 06:42:20;;;;;;;1.70;0.30;;;;;;;8.40;37.26;95562.98;107863;1269;234447;-83
2022/02/19 06:44:53;;;;;;;1.30;0.50;;;;;;;8.97;36.48;95577.10;107223;1268;1509816;-82
2022/02/19 06:47:25;;;;;;;1.30;0.50;;;;;;;9.40;35.46;95564.42;108137;1268;172765;-83
2022/02/19 06:50:00;;;;;;;1.30;0.60;;;;;;;9.64;35.13;95574.34;106801;1268;1806817;-85
2022/02/19 06:52:31;;;;;;;1.50;0.80;;;;;;;9.85;35.22;95586.70;107824;1268;137565;-82
2022/02/19 06:55:03;;;;;;;2.40;0.70;;;;;;;10.08;34.93;95586.71;105916;1268;2593210;-85
2022/02/19 06:57:36;;;;;;;1.10;0.60;;;;;;;9.99;34.91;95601.68;107752;1268;138583;-84
2022/02/19 07:00:11;;;;;;;2.00;0.50;;;;;;;9.82;34.92;95599.27;107956;1268;119251;-83
2022/02/19 07:02:42;;;;;;;13.70;1.30;;;;;;;9.66;35.87;95591.73;107878;1268;140679;-84
2022/02/19 07:05:13;;;;;;;3.80;1.10;;;;;;;9.59;35.50;95590.86;107875;1268;119753;-82
2022/02/19 07:07:44;;;;;;;2.40;0.90;;;;;;;9.61;35.29;95600.56;107674;1268;110052;-83
2022/02/19 07:10:16;;;;;;;1.60;0.80;;;;;;;9.72;35.37;95589.11;106619;1268;1648931;-82
2022/02/19 07:12:47;;;;;;;3.70;0.60;;;;;;;9.97;35.48;95603.88;107633;1268;144850;-82
2022/02/19 07:15:20;;;;;;;2.00;0.50;;;;;;;10.18;35.07;95606.50;107804;1268;144329;-82
2022/02/19 07:17:53;;;;;;;1.10;0.30;;;;;;;10.37;34.74;95619.85;107699;1268;106627;-83
2022/02/19 07:20:25;;;;;;;3.30;0.70;;;;;;;10.52;34.38;95617.90;107646;1268;169523;-82
2022/02/19 07:22:56;;;;;;;2.90;1.40;;;;;;;10.59;33.75;95621.75;106758;1269;1627424;-82
2022/02/19 07:25:29;;;;;;;1.80;0.70;;;;;;;10.41;33.96;95622.13;106807;1268;1779483;-83
2022/02/19 07:28:01;;;;;;;1.60;0.40;;;;;;;10.23;34.41;95622.60;107874;1268;146453;-82
2022/02/19 07:30:33;;;;;;;0.70;0.40;;;;;;;10.13;34.68;95642.23;106270;1268;2103675;-84
2022/02/19 07:33:04;;;;;;;1.10;0.40;;;;;;;9.99;34.94;95633.59;104613;1268;4517901;-83
2022/02/19 07:35:35;;;;;;;2.60;0.50;;;;;;;10.08;34.22;95624.45;107694;1271;94971;-82
2022/02/19 07:38:07;;;;;;;2.80;0.70;;;;;;;10.10;34.15;95645.73;107779;1268;204289;-82
2022/02/19 07:40:38;;;;;;;1.40;0.70;;;;;;;10.09;33.60;95620.34;108114;1268;146876;-83
2022/02/19 07:43:12;;;;;;;2.70;0.80;;;;;;;10.31;33.42;95641.70;108244;1268;37930;-82
2022/02/19 07:45:43;;;;;;;1.80;0.70;;;;;;;10.33;32.38;95644.10;108200;1268;34416;-81
2022/02/19 07:48:14;;;;;;;2.70;0.90;;;;;;;10.23;32.88;95673.02;107939;1268;129984;-81
2022/02/19 07:59:11;;;;;;;1.80;0.90;;;;;;;10.13;32.60;95672.90;107990;1267;216573;-83
2022/02/19 08:01:43;;;;;;;0.80;0.60;;;;;;;10.15;32.20;95663.43;107009;1268;1769763;-83
2022/02/19 08:04:14;;;;;;;3.90;0.90;;;;;;;10.25;32.67;95663.96;108068;1268;87319;-83
2022/02/19 08:06:46;;;;;;;1.30;0.60;;;;;;;10.42;32.71;95676.52;108037;1266;137268;-82
2022/02/19 08:09:17;;;;;;;1.00;0.50;;;;;;;10.45;32.00;95653.30;106677;1268;1997433;-83
2022/02/19 08:11:49;;;;;;;0.50;0.30;;;;;;;10.28;32.45;95643.63;108058;1268;89428;-82
2022/02/19 08:14:20;;;;;;;2.70;0.70;;;;;;;10.27;32.97;95673.77;107898;1268;115394;-82
2022/02/19 08:16:55;;;;;;;1.20;0.70;;;;;;;10.48;34.06;95681.27;107072;1267;1530487;-81
2022/02/19 08:19:26;;;;;;;2.70;0.70;;;;;;;10.65;32.94;95679.13;106964;1267;1541536;-82
2022/02/19 08:21:58;;;;;;;2.90;0.80;;;;;;;10.44;33.02;95670.55;108265;1267;35773;-83
2022/02/19 08:24:29;;;;;;;4.00;0.90;;;;;;;10.31;33.80;95679.91;108189;1268;109242;-83
2022/02/19 08:27:01;;;;;;;2.20;0.80;;;;;;;10.23;33.22;95667.20;108095;1268;103045;-83
2022/02/19 08:29:34;;;;;;;2.20;0.70;;;;;;;10.01;33.28;95686.30;108157;1268;48895;-83
2022/02/19 08:32:08;;;;;;;2.00;0.80;;;;;;;9.93;34.06;95683.95;108185;1268;89868;-83
2022/02/19 08:34:39;;;;;;;3.00;0.80;;;;;;;9.88;34.36;95691.27;106760;1268;2223546;-82
2022/02/19 08:37:13;;;;;;;1.30;0.60;;;;;;;9.84;34.49;95695.67;107191;1268;1218756;-83
2022/02/19 08:39:45;;;;;;;2.10;0.70;;;;;;;9.81;34.69;95698.59;106857;1268;1764300;-83
2022/02/19 08:42:17;;;;;;;2.20;1.00;;;;;;;9.59;33.71;95688.81;108104;1268;162534;-82
2022/02/19 08:44:49;;;;;;;4.30;0.50;;;;;;;9.17;33.55;95721.09;108052;1268;145448;-82
2022/02/19 08:47:21;;;;;;;1.50;0.60;;;;;;;8.86;33.45;95710.77;108240;1268;40095;-83
2022/02/19 08:49:55;;;;;;;3.10;0.60;;;;;;;8.72;33.97;95731.98;108187;1268;69087;-83
2022/02/19 08:52:26;;;;;;;1.20;0.50;;;;;;;8.67;34.39;95749.64;106866;1268;1626455;-82
2022/02/19 08:54:58;;;;;;;2.30;0.70;;;;;;;8.67;34.30;95746.94;106690;1268;1858052;-82
2022/02/19 08:57:29;;;;;;;1.30;0.30;;;;;;;8.73;34.38;95755.90;107922;1271;107039;-82
2022/02/19 09:00:03;;;;;;;2.50;1.20;;;;;;;8.71;34.14;95737.54;108266;1268;36102;-82
2022/02/19 09:02:34;;;;;;;1.70;0.90;;;;;;;8.68;34.16;95759.88;107137;1268;1094265;-82
2022/02/19 09:05:12;;;;;;;1.60;0.70;;;;;;;8.55;34.16;95762.34;108119;1268;159192;-83
2022/02/19 09:07:43;;;;;;;3.10;0.60;;;;;;;8.51;34.15;95763.18;106500;1268;2125158;-82
2022/02/19 09:10:17;;;;;;;4.00;0.80;;;;;;;8.47;34.67;95754.11;107957;1268;140215;-82
2022/02/19 09:12:50;;;;;;;2.10;1.00;;;;;;;8.48;35.01;95763.81;107933;1268;171425;-81
2022/02/19 09:15:25;;;;;;;1.40;0.90;;;;;;;8.50;34.96;95767.64;106653;1268;2077140;-82
2022/02/19 09:17:58;;;;;;;1.00;0.40;;;;;;;8.55;34.58;95778.92;107902;1268;136702;-83
2022/02/19 09:20:30;;;;;;;2.00;0.90;;;;;;;8.49;33.94;95762.42;107953;1268;148303;-81
2022/02/19 09:23:04;;;;;;;1.20;0.80;;;;;;;8.33;34.36;95775.80;108082;1268;119516;-83
2022/02/19 09:25:37;;;;;;;6.00;0.70;;;;;;;8.26;33.95;95748.63;108038;1268;43387;-83
2022/02/19 09:28:09;;;;;;;2.30;1.20;;;;;;;8.21;34.26;95801.73;107938;1268;210646;-83
2022/02/19 09:30:43;;;;;;;2.20;0.60;;;;;;;8.23;34.93;95810.04;108142;1268;55136;-81
2022/02/19 09:33:14;;;;;;;2.20;1.00;;;;;;;8.13;34.60;95792.04;108054;1268;125186;-81
2022/02/19 09:35:48;;;;;;;1.00;0.70;;;;;;;8.09;35.30;95817.90;108135;1268;92939;-82
2022/02/19 09:38:20;;;;;;;1.40;0.70;;;;;;;8.17;34.64;95811.91;108011;1269;78483;-82
2022/02/19 09:40:54;;;;;;;2.80;1.10;;;;;;;8.25;35.44;95818.14;107753;1268;229850;-82
2022/02/19 09:43:28;;;;;;;4.00;1.00;;;;;;;8.44;35.76;95823.24;107721;1270;168888;-81
2022/02/19 09:46:00;;;;;;;1.20;0.70;;;;;;;8.59;35.54;95836.47;107797;1270;248587;-81
2022/02/19 09:48:33;;;;;;;3.10;2.30;;;;;;;8.61;35.10;95829.89;106636;1270;1865165;-84
2022/02/19 09:51:08;;;;;;;1.30;0.60;;;;;;;8.62;34.47;95847.31;107968;1270;154325;-83
2022/02/19 09:53:41;;;;;;;2.50;0.90;;;;;;;8.51;33.32;95832.61;108125;1268;36430;-82
2022/02/19 09:56:14;;;;;;;2.60;1.10;;;;;;;8.47;34.56;95854.48;108253;1268;41021;-83
2022/02/19 09:58:47;;;;;;;2.80;0.90;;;;;;;8.62;35.24;95863.46;108140;1270;66809;-82
2022/02/19 10:01:22;;;;;;;1.70;0.70;;;;;;;8.72;34.73;95863.51;107937;1270;37122;-81
2022/02/19 10:04:01;;;;;;;2.70;1.00;;;;;;;8.72;34.88;95857.23;107923;1270;143688;-82
2022/02/19 10:06:34;;;;;;;2.70;0.90;;;;;;;8.72;34.56;95848.19;107905;1270;137749;-83
2022/02/19 10:09:17;;;;;;;2.80;1.30;;;;;;;8.60;33.83;95857.53;108000;1268;38628;-82
2022/02/19 10:11:50;;;;;;;5.40;1.10;;;;;;;8.47;34.37;95856.21;107939;1270;37983;-82
2022/02/19 10:14:31;;;;;;;3.90;1.30;;;;;;;8.56;34.99;95872.58;106540;1268;1707551;-82
2022/02/19 10:17:24;;;;;;;3.40;1.30;;;;;;;8.70;34.42;95871.45;106593;1271;1764967;-82
2022/02/19 10:19:58;;;;;;;5.90;1.00;;;;;;;8.88;34.51;95873.39;107915;1270;35748;-81
2022/02/19 10:22:31;;;;;;;3.40;1.00;;;;;;;8.86;33.68;95866.44;107903;1271;32953;-81
2022/02/19 10:25:05;;;;;;;4.80;1.20;;;;;;;8.83;34.33;95897.98;105580;1268;1654856;-81
2022/02/19 10:27:51;;;;;;;2.80;0.90;;;;;;;8.96;33.84;95888.89;107947;1271;126398;-82
2022/02/19 10:30:24;;;;;;;2.20;0.70;;;;;;;8.67;33.56;95893.64;107986;1270;34843;-82
2022/02/19 10:32:57;;;;;;;2.60;1.00;;;;;;;8.28;33.96;95895.02;107954;1268;33726;-81
2022/02/19 10:35:35;;;;;;;2.60;0.90;;;;;;;8.12;35.00;95914.55;107775;1270;115971;-82
2022/02/19 10:38:10;;;;;;;1.30;0.80;;;;;;;8.15;34.31;95904.33;106607;1271;1562359;-81
2022/02/19 10:40:46;;;;;;;5.10;0.90;;;;;;;8.00;34.58;95905.70;107987;1270;44372;-82
2022/02/19 10:43:22;;;;;;;1.50;0.80;;;;;;;8.05;35.57;95909.59;106829;1270;1515368;-82
2022/02/19 10:45:59;;;;;;;2.80;1.00;;;;;;;8.12;35.06;95915.45;106679;1271;1575426;-82
2022/02/19 10:48:34;;;;;;;1.40;0.80;;;;;;;7.95;34.66;95885.32;107962;1270;41276;-81
2022/02/19 10:51:15;;;;;;;2.60;0.80;;;;;;;7.84;35.12;95919.34;108187;1268;36070;-82
2022/02/19 10:53:55;;;;;;;;;;;;;;;7.91;35.32;95938.82;108040;1268;108848;-81
2022/02/19 10:56:27;;;;;;;2.90;0.70;;;;;;;7.76;34.44;95937.56;106807;1268;1802462;-81
2022/02/19 10:59:03;;;;;;;2.50;1.10;;;;;;;7.58;33.87;95937.98;106885;1267;1739792;-82
2022/02/19 11:01:43;;;;;;;5.90;1.20;;;;;;;7.67;34.63;95929.50;107985;1268;135332;-83
2022/02/19 11:04:16;;;;;;;2.10;0.80;;;;;;;7.81;33.93;95949.66;108127;1268;39640;-83
2022/02/19 11:06:49;;;;;;;2.20;0.70;;;;;;;7.88;33.54;95949.08;107993;1267;125974;-81
2022/02/19 11:09:21;;;;;;;3.80;1.10;;;;;;;7.95;33.80;95963.69;106796;1268;1848455;-82
2022/02/19 11:11:53;;;;;;;5.90;0.90;;;;;;;8.12;33.66;95959.36;108205;1267;43051;-82
2022/02/19 11:14:25;;;;;;;2.30;0.80;;;;;;;8.17;32.88;95946.45;108186;1268;36634;-82
2022/02/19 11:16:57;;;;;;;0.80;0.60;;;;;;;8.20;33.54;95945.41;106426;1268;2027780;-81
2022/02/19 11:19:29;;;;;;;2.10;1.10;;;;;;;8.37;33.58;95961.13;108010;1268;94896;-82
2022/02/19 11:22:00;;;;;;;2.90;1.30;;;;;;;8.43;32.83;95968.83;108096;1268;71809;-81
2022/02/19 11:24:35;;;;;;;2.00;0.90;;;;;;;8.50;32.97;95974.10;107313;1267;1143349;-82
2022/02/19 11:27:09;;;;;;;3.00;1.20;;;;;;;8.60;33.73;95994.50;108153;1268;33440;-82
2022/02/19 11:29:42;;;;;;;3.10;0.80;;;;;;;8.79;33.54;96001.89;108140;1268;154810;-82
2022/02/19 11:32:16;;;;;;;1.80;0.90;;;;;;;8.84;31.89;95995.92;106208;1268;2467422;-81
2022/02/19 11:34:52;;;;;;;2.20;0.50;;;;;;;8.77;31.87;95992.73;108130;1268;33713;-81
2022/02/19 11:37:24;;;;;;;1.60;0.80;;;;;;;8.79;32.16;95999.63;108096;1267;37243;-81
2022/02/19 11:40:13;;;;;;;3.30;1.00;;;;;;;8.96;32.97;96002.77;106535;1268;2017265;-82
2022/02/19 11:42:47;;;;;;;2.90;0.80;;;;;;;8.92;32.54;95993.93;107939;1268;177581;-81
2022/02/19 11:45:21;;;;;;;1.40;0.80;;;;;;;8.76;33.02;96001.35;107966;1268;169205;-82
2022/02/19 11:47:56;;;;;;;3.90;0.90;;;;;;;8.79;32.73;96025.80;108313;1268;52321;-83
2022/02/19 11:50:29;;;;;;;2.10;1.10;;;;;;;8.82;32.82;96024.39;108187;1267;33863;-81
2022/02/19 11:53:23;;;;;;;3.00;1.20;;;;;;;8.91;32.47;96022.87;108137;1267;62379;-81
2022/02/19 11:56:00;;;;;;;2.30;0.80;;;;;;;8.76;32.15;96031.21;106760;1268;1771595;-82